Time;durP1;ratioP1;P1;durP2;ratioP2;P2;SDS_P1;SDS_P2;PMS_P1;PMS_P2;Temp;Humidity;BMP_temperature;BMP_pressure;BME280_temperature;BME280_humidity;BME280_pressure;Samples;Min_cycle;Max_cycle;Signal;HPM_P1;HPM_P2
2023/09/16 00:00:46;;;;;;;19.00;12.30;;;;;;;23.41;100.00;101464.68;106294;1259;73870;-86
2023/09/16 00:03:13;;;;;;;19.20;12.10;;;;;;;23.30;100.00;101465.90;106313;1258;67191;-86
2023/09/16 00:05:40;;;;;;;19.50;11.60;;;;;;;23.25;100.00;101467.55;106289;1258;72376;-88
2023/09/16 00:08:07;;;;;;;19.80;11.50;;;;;;;23.21;100.00;101469.69;106162;1257;61859;-87
2023/09/16 00:10:34;;;;;;;18.10;11.70;;;;;;;23.04;100.00;101468.91;106395;1255;60688;-87
2023/09/16 00:13:01;;;;;;;18.60;11.50;;;;;;;23.06;99.91;101467.38;106212;1255;73899;-88
2023/09/16 00:15:29;;;;;;;18.70;11.90;;;;;;;22.95;100.00;101469.98;106352;1259;68483;-87
2023/09/16 00:17:56;;;;;;;21.20;12.10;;;;;;;22.90;100.00;101470.58;106335;1254;72446;-86
2023/09/16 00:20:27;;;;;;;17.00;11.50;;;;;;;22.96;99.83;101471.65;106275;1256;60469;-86
2023/09/16 00:22:54;;;;;;;19.20;12.70;;;;;;;22.85;100.00;101479.60;106125;1261;60609;-88
2023/09/16 00:25:21;;;;;;;19.60;11.90;;;;;;;22.76;100.00;101477.26;106285;1259;74166;-89
2023/09/16 00:27:48;;;;;;;19.20;12.20;;;;;;;22.79;100.00;101475.15;106346;1256;69143;-86
2023/09/16 00:30:15;;;;;;;23.60;12.00;;;;;;;22.91;99.26;101481.33;106337;1259;72766;-89
2023/09/16 00:32:43;;;;;;;16.30;11.00;;;;;;;22.78;99.25;101479.24;106458;1258;60532;-88
2023/09/16 00:35:10;;;;;;;18.90;10.90;;;;;;;22.67;99.22;101480.39;106507;1254;60476;-91
2023/09/16 00:37:38;;;;;;;21.40;10.70;;;;;;;22.57;99.48;101476.42;106075;1260;72473;-90
2023/09/16 00:40:08;;;;;;;18.10;11.90;;;;;;;22.58;99.28;101476.55;106305;1259;68539;-90
2023/09/16 00:42:38;;;;;;;18.60;11.40;;;;;;;22.51;99.38;101475.63;106351;1259;71405;-90
2023/09/16 00:45:06;;;;;;;16.00;11.00;;;;;;;22.41;99.71;101478.13;106205;1260;60460;-90
2023/09/16 00:47:34;;;;;;;17.50;11.70;;;;;;;22.20;100.00;101476.23;106303;1255;60441;-87
2023/09/16 00:50:04;;;;;;;18.00;11.80;;;;;;;22.16;100.00;101477.55;106335;1255;73684;-87
2023/09/16 00:52:31;;;;;;;18.80;11.40;;;;;;;22.13;100.00;101484.28;106568;1261;67409;-85
2023/09/16 00:54:58;;;;;;;19.90;11.90;;;;;;;22.13;100.00;101485.55;106271;1260;72529;-86
2023/09/16 00:57:26;;;;;;;18.00;11.60;;;;;;;22.07;100.00;101488.23;106111;1255;61231;-88
2023/09/16 00:59:53;;;;;;;18.60;11.50;;;;;;;22.08;100.00;101495.20;106309;1259;60888;-89
2023/09/16 01:02:20;;;;;;;17.10;11.80;;;;;;;22.05;100.00;101497.44;106274;1259;72786;-86
2023/09/16 01:04:47;;;;;;;18.80;11.00;;;;;;;22.05;100.00;101500.98;106353;1260;66487;-86
2023/09/16 01:07:14;;;;;;;16.00;11.20;;;;;;;21.99;100.00;101505.86;106307;1259;72875;-86
2023/09/16 01:09:41;;;;;;;16.80;11.90;;;;;;;21.94;100.00;101507.16;106290;1254;61732;-86
2023/09/16 01:12:09;;;;;;;21.90;11.80;;;;;;;21.90;100.00;101512.08;106252;1254;60759;-86
2023/09/16 01:14:36;;;;;;;16.40;11.80;;;;;;;21.96;100.00;101509.31;106482;1254;72665;-86
2023/09/16 01:17:07;;;;;;;15.00;10.60;;;;;;;21.93;100.00;101508.92;106298;1254;68596;-84
2023/09/16 01:19:56;;;;;;;19.10;11.90;;;;;;;22.08;100.00;101508.01;106278;1258;71985;-86
2023/09/16 01:22:23;;;;;;;17.70;11.40;;;;;;;22.12;100.00;101507.40;106338;1254;60443;-86
2023/09/16 01:24:51;;;;;;;18.90;11.10;;;;;;;22.10;100.00;101511.05;106354;1254;60508;-85
2023/09/16 01:27:20;;;;;;;17.20;12.30;;;;;;;22.07;100.00;101515.98;106357;1260;73872;-85
2023/09/16 01:29:48;;;;;;;19.10;11.40;;;;;;;22.09;100.00;101513.14;106340;1260;68657;-86
2023/09/16 01:32:15;;;;;;;17.00;11.00;;;;;;;22.08;100.00;101518.98;106277;1257;71163;-86
2023/09/16 01:34:49;;;;;;;18.30;11.70;;;;;;;22.00;100.00;101520.45;106307;1260;60342;-86
2023/09/16 01:37:18;;;;;;;19.90;12.30;;;;;;;21.87;100.00;101523.30;106387;1257;60214;-86
2023/09/16 01:39:48;;;;;;;18.20;11.90;;;;;;;21.95;100.00;101528.50;106296;1254;71918;-86
2023/09/16 01:42:15;;;;;;;17.20;11.10;;;;;;;21.97;100.00;101530.42;106232;1260;68405;-86
2023/09/16 01:44:43;;;;;;;17.80;10.90;;;;;;;21.96;100.00;101526.23;106347;1254;71281;-89
2023/09/16 01:47:10;;;;;;;17.40;10.80;;;;;;;21.94;100.00;101526.30;106233;1259;60536;-85
2023/09/16 01:49:37;;;;;;;16.30;10.80;;;;;;;21.86;100.00;101524.46;106242;1254;60461;-85
2023/09/16 01:52:05;;;;;;;16.00;11.10;;;;;;;21.89;100.00;101522.14;106214;1255;72400;-85
2023/09/16 01:54:32;;;;;;;15.90;10.00;;;;;;;22.00;100.00;101527.21;106427;1254;68795;-89
2023/09/16 01:56:59;;;;;;;16.20;10.50;;;;;;;22.03;99.90;101529.40;106315;1254;72598;-90
2023/09/16 01:59:26;;;;;;;16.20;10.20;;;;;;;22.10;98.68;101530.03;106354;1255;60518;-89
2023/09/16 02:01:53;;;;;;;17.30;10.20;;;;;;;21.94;98.84;101533.86;106555;1254;60477;-85
2023/09/16 02:04:20;;;;;;;16.90;10.90;;;;;;;21.87;98.68;101538.11;106542;1257;72728;-85
2023/09/16 02:06:47;;;;;;;17.90;12.10;;;;;;;21.77;98.48;101536.52;106358;1254;70118;-86
2023/09/16 02:09:16;;;;;;;18.40;12.10;;;;;;;21.66;98.47;101537.38;106078;1262;72696;-86
2023/09/16 02:11:43;;;;;;;17.60;11.60;;;;;;;21.50;99.07;101532.22;106192;1260;60689;-89
2023/09/16 02:14:17;;;;;;;17.80;11.20;;;;;;;21.38;99.37;101537.55;106258;1254;60441;-86
2023/09/16 02:16:45;;;;;;;19.60;11.60;;;;;;;21.30;99.53;101541.11;106460;1258;73663;-90
2023/09/16 02:19:12;;;;;;;19.40;12.00;;;;;;;21.25;99.29;101541.67;106206;1255;68503;-90
2023/09/16 02:21:40;;;;;;;16.90;10.90;;;;;;;21.05;99.85;101546.14;106243;1260;72679;-86
2023/09/16 02:24:07;;;;;;;15.20;10.60;;;;;;;20.96;100.00;101543.79;106333;1257;60548;-86
2023/09/16 02:26:34;;;;;;;17.60;11.70;;;;;;;20.86;100.00;101547.46;106391;1259;59289;-90
2023/09/16 02:29:01;;;;;;;19.90;12.30;;;;;;;20.83;100.00;101550.80;106352;1255;73613;-89
2023/09/16 02:31:28;;;;;;;17.80;11.10;;;;;;;20.79;100.00;101551.17;106246;1258;68417;-89
2023/09/16 02:33:57;;;;;;;15.00;10.70;;;;;;;20.77;100.00;101553.62;106287;1254;71156;-89
2023/09/16 02:36:25;;;;;;;16.50;11.20;;;;;;;20.75;100.00;101551.76;106353;1259;60473;-90
2023/09/16 02:38:52;;;;;;;16.90;12.20;;;;;;;20.71;100.00;101551.30;106273;1259;60404;-90
2023/09/16 02:41:20;;;;;;;16.10;10.90;;;;;;;20.60;100.00;101554.42;106321;1258;73780;-89
2023/09/16 02:43:47;;;;;;;14.80;10.40;;;;;;;20.52;100.00;101557.20;106400;1254;68454;-85
2023/09/16 02:46:14;;;;;;;15.90;10.90;;;;;;;20.34;100.00;101555.30;106173;1255;73417;-89
2023/09/16 02:48:42;;;;;;;16.30;10.60;;;;;;;20.33;100.00;101558.91;106348;1260;60370;-85
2023/09/16 02:51:11;;;;;;;15.40;10.90;;;;;;;20.13;100.00;101562.42;106447;1254;60469;-90
2023/09/16 02:53:38;;;;;;;16.10;10.00;;;;;;;20.08;100.00;101565.80;106379;1254;73944;-85
2023/09/16 02:56:08;;;;;;;17.70;10.90;;;;;;;20.08;100.00;101568.41;106255;1254;68651;-85
2023/09/16 02:58:35;;;;;;;16.60;10.20;;;;;;;20.01;100.00;101571.86;106373;1257;71742;-89
2023/09/16 03:01:09;;;;;;;19.70;10.90;;;;;;;19.96;100.00;101565.55;106360;1260;60490;-85
2023/09/16 03:03:40;;;;;;;15.60;10.60;;;;;;;19.88;100.00;101567.98;106259;1254;60431;-89
2023/09/16 03:06:07;;;;;;;16.00;10.50;;;;;;;19.82;100.00;101566.11;106335;1254;72516;-89
2023/09/16 03:08:34;;;;;;;16.00;10.50;;;;;;;19.79;100.00;101570.67;106329;1254;67615;-84
2023/09/16 03:11:02;;;;;;;16.60;10.80;;;;;;;19.82;100.00;101568.88;106196;1254;73366;-85
2023/09/16 03:13:29;;;;;;;18.40;11.10;;;;;;;19.66;100.00;101576.73;106434;1254;62010;-89
2023/09/16 03:16:18;;;;;;;15.20;10.20;;;;;;;19.59;100.00;101573.73;106387;1260;60501;-87
2023/09/16 03:18:49;;;;;;;16.60;9.90;;;;;;;19.65;100.00;101577.45;106403;1255;73524;-89
2023/09/16 03:21:18;;;;;;;18.40;10.90;;;;;;;19.64;100.00;101580.83;106260;1257;67205;-89
2023/09/16 03:23:45;;;;;;;17.30;11.40;;;;;;;19.58;100.00;101579.23;106308;1254;72427;-85
2023/09/16 03:26:13;;;;;;;16.30;10.30;;;;;;;19.59;100.00;101581.89;106283;1260;60544;-90
2023/09/16 03:28:47;;;;;;;16.40;10.80;;;;;;;19.54;100.00;101585.76;106258;1254;60508;-89
2023/09/16 03:31:16;;;;;;;16.30;10.70;;;;;;;19.47;100.00;101586.85;106475;1255;73559;-85
2023/09/16 03:33:43;;;;;;;16.70;10.00;;;;;;;19.54;100.00;101591.26;106324;1254;67097;-89
2023/09/16 03:36:10;;;;;;;16.30;10.90;;;;;;;19.53;100.00;101593.83;106240;1254;71455;-85
2023/09/16 03:38:49;;;;;;;14.90;9.60;;;;;;;19.51;100.00;101595.70;106279;1256;60949;-84
2023/09/16 03:41:16;;;;;;;16.10;9.60;;;;;;;19.47;100.00;101597.01;106299;1254;60306;-89
2023/09/16 03:43:48;;;;;;;12.70;8.70;;;;;;;19.43;100.00;101597.55;106269;1258;73843;-84
2023/09/16 03:46:16;;;;;;;14.30;9.50;;;;;;;19.37;100.00;101606.33;106340;1254;67157;-84
2023/09/16 03:48:44;;;;;;;16.30;9.70;;;;;;;19.39;100.00;101606.39;106440;1254;72324;-85
2023/09/16 03:51:12;;;;;;;16.80;10.60;;;;;;;19.36;100.00;101609.17;106358;1259;60806;-84
2023/09/16 03:53:39;;;;;;;16.90;10.40;;;;;;;19.27;100.00;101614.67;106098;1254;60137;-88
2023/09/16 03:56:11;;;;;;;17.40;9.60;;;;;;;19.34;100.00;101621.46;106280;1254;74244;-83
2023/09/16 03:58:39;;;;;;;16.60;10.80;;;;;;;19.42;100.00;101620.64;106325;1254;68609;-84
2023/09/16 04:01:05;;;;;;;19.50;11.40;;;;;;;19.52;100.00;101621.02;106226;1254;71684;-84
2023/09/16 04:03:33;;;;;;;16.80;11.30;;;;;;;19.54;100.00;101625.40;106314;1257;61772;-89
2023/09/16 04:06:03;;;;;;;17.70;10.50;;;;;;;19.61;100.00;101621.59;106435;1254;60543;-89
2023/09/16 04:08:30;;;;;;;16.00;10.30;;;;;;;19.63;100.00;101623.60;106293;1254;73648;-84
2023/09/16 04:11:09;;;;;;;20.00;11.10;;;;;;;19.66;100.00;101626.41;106231;1258;67388;-88
2023/09/16 04:13:37;;;;;;;16.00;10.30;;;;;;;19.71;100.00;101626.45;106338;1255;72434;-89
2023/09/16 04:16:04;;;;;;;17.80;10.20;;;;;;;19.79;100.00;101629.58;106303;1257;61740;-89
2023/09/16 04:18:32;;;;;;;16.40;10.20;;;;;;;19.89;100.00;101628.77;105997;1258;256352;-88
2023/09/16 04:21:02;;;;;;;17.10;10.50;;;;;;;19.98;100.00;101631.02;106405;1254;73821;-89
2023/09/16 04:23:29;;;;;;;17.10;11.80;;;;;;;20.07;100.00;101636.78;106276;1255;67404;-89
2023/09/16 04:25:57;;;;;;;16.20;11.00;;;;;;;20.10;100.00;101638.61;106322;1260;71513;-85
2023/09/16 04:28:25;;;;;;;14.60;10.30;;;;;;;20.23;100.00;101638.17;106533;1257;62037;-89
2023/09/16 04:30:53;;;;;;;17.80;10.50;;;;;;;20.15;100.00;101642.58;106334;1254;59879;-89
2023/09/16 04:33:21;;;;;;;16.50;11.00;;;;;;;20.12;100.00;101639.83;106305;1253;74037;-88
2023/09/16 04:35:49;;;;;;;17.40;11.00;;;;;;;20.28;100.00;101642.54;106286;1254;68709;-89
2023/09/16 04:38:18;;;;;;;16.70;11.20;;;;;;;20.46;100.00;101649.41;106311;1255;72354;-84
2023/09/16 04:40:47;;;;;;;16.10;10.30;;;;;;;20.61;100.00;101648.71;106338;1253;60526;-85
2023/09/16 04:43:17;;;;;;;14.80;10.30;;;;;;;20.77;100.00;101650.17;106483;1254;60290;-87
2023/09/16 04:45:48;;;;;;;20.10;11.60;;;;;;;21.00;100.00;101650.77;106266;1254;73515;-88
2023/09/16 04:48:22;;;;;;;17.10;11.00;;;;;;;21.11;100.00;101652.91;106266;1255;68474;-84
2023/09/16 04:50:50;;;;;;;16.10;10.60;;;;;;;21.21;100.00;101653.81;106607;1253;72448;-85
2023/09/16 04:53:16;;;;;;;17.10;11.50;;;;;;;21.31;100.00;101656.59;106360;1255;60424;-85
2023/09/16 04:55:44;;;;;;;19.50;11.50;;;;;;;21.44;100.00;101655.02;106323;1254;60559;-89
2023/09/16 04:58:11;;;;;;;16.30;10.30;;;;;;;21.55;100.00;101658.32;106371;1260;72693;-89
2023/09/16 05:00:39;;;;;;;17.20;11.30;;;;;;;21.73;100.00;101657.41;106467;1255;68599;-88
2023/09/16 05:03:07;;;;;;;18.10;10.80;;;;;;;21.99;100.00;101662.55;106492;1254;70802;-88
2023/09/16 05:05:35;;;;;;;16.10;10.90;;;;;;;22.02;100.00;101659.29;106427;1254;62077;-88
2023/09/16 05:08:04;;;;;;;18.10;10.80;;;;;;;22.13;100.00;101661.14;106598;1254;63237;-88
2023/09/16 05:10:31;;;;;;;16.10;10.10;;;;;;;22.20;100.00;101660.70;106239;1257;73805;-87
2023/09/16 05:12:59;;;;;;;12.60;9.00;;;;;;;22.30;100.00;101660.89;106540;1254;68759;-88
2023/09/16 05:15:28;;;;;;;15.60;8.70;;;;;;;22.37;100.00;101663.40;106608;1254;72587;-88
2023/09/16 05:17:55;;;;;;;13.70;9.20;;;;;;;22.46;100.00;101658.19;106399;1254;60456;-88
2023/09/16 05:20:22;;;;;;;14.00;9.40;;;;;;;22.64;100.00;101663.41;106296;1252;60050;-85
2023/09/16 05:22:49;;;;;;;15.80;9.20;;;;;;;22.75;100.00;101666.14;106349;1253;72348;-85
2023/09/16 05:25:20;;;;;;;13.70;8.90;;;;;;;22.80;100.00;101665.61;106505;1254;68484;-86
2023/09/16 05:27:47;;;;;;;15.50;8.50;;;;;;;22.91;100.00;101664.17;106432;1254;71330;-89
2023/09/16 05:30:15;;;;;;;12.00;8.30;;;;;;;23.02;99.69;101667.99;106396;1253;60426;-88
2023/09/16 05:32:44;;;;;;;11.00;7.80;;;;;;;23.10;98.25;101666.48;106392;1257;60877;-89
2023/09/16 05:35:11;;;;;;;12.50;8.40;;;;;;;23.15;98.36;101669.02;106292;1257;74256;-88
2023/09/16 05:37:39;;;;;;;13.20;8.50;;;;;;;23.30;99.30;101669.04;106253;1254;68541;-89
2023/09/16 05:40:08;;;;;;;13.40;8.40;;;;;;;23.67;95.75;101670.36;106335;1257;72352;-87
2023/09/16 05:42:35;;;;;;;14.60;8.20;;;;;;;23.73;93.13;101668.95;106413;1255;60540;-86
2023/09/16 05:45:03;;;;;;;11.60;7.70;;;;;;;23.62;91.04;101674.71;106255;1254;61093;-87
2023/09/16 05:47:32;;;;;;;12.70;7.50;;;;;;;23.66;89.75;101677.48;106308;1254;73792;-85
2023/09/16 05:49:59;;;;;;;11.50;7.30;;;;;;;23.80;88.09;101679.74;106224;1254;68512;-86
2023/09/16 05:52:26;;;;;;;11.50;6.80;;;;;;;23.86;87.50;101675.75;106399;1256;71160;-86
2023/09/16 05:54:54;;;;;;;10.50;7.10;;;;;;;24.04;84.43;101679.20;106374;1254;60529;-86
2023/09/16 05:57:21;;;;;;;16.80;10.10;;;;;;;24.23;83.66;101681.05;106343;1256;60399;-85
2023/09/16 05:59:48;;;;;;;12.00;7.90;;;;;;;24.39;82.98;101677.45;106347;1257;73741;-85
2023/09/16 06:02:16;;;;;;;10.60;7.50;;;;;;;24.55;81.12;101682.38;106444;1257;67065;-85
2023/09/16 06:04:43;;;;;;;11.30;7.40;;;;;;;24.58;77.13;101683.83;106427;1254;72646;-88
2023/09/16 06:07:10;;;;;;;11.30;6.70;;;;;;;24.65;75.03;101681.67;106401;1257;60530;-89
2023/09/16 06:09:37;;;;;;;11.70;7.00;;;;;;;24.70;74.11;101683.86;106445;1253;60472;-86
2023/09/16 06:12:04;;;;;;;10.10;6.90;;;;;;;24.73;72.74;101687.23;106395;1254;72281;-86
2023/09/16 06:14:31;;;;;;;10.50;6.80;;;;;;;24.78;70.72;101689.81;106352;1257;68357;-89
2023/09/16 06:16:59;;;;;;;11.40;7.50;;;;;;;24.79;69.80;101689.53;106319;1259;71381;-86
2023/09/16 06:19:27;;;;;;;10.50;6.80;;;;;;;24.93;70.12;101694.94;106478;1254;60533;-89
2023/09/16 06:21:55;;;;;;;12.60;7.80;;;;;;;25.03;68.22;101697.41;106459;1256;60478;-89
2023/09/16 06:24:22;;;;;;;10.60;7.00;;;;;;;25.15;67.06;101702.25;106432;1254;72850;-86
2023/09/16 06:26:50;;;;;;;10.30;7.00;;;;;;;25.29;68.17;101703.44;106430;1254;60524;-87
2023/09/16 06:29:17;;;;;;;11.00;6.90;;;;;;;25.44;67.70;101697.86;106563;1254;63984;-86
2023/09/16 06:31:44;;;;;;;10.10;7.00;;;;;;;25.67;67.54;101696.75;106281;1257;60418;-87
2023/09/16 06:34:11;;;;;;;12.10;6.70;;;;;;;25.88;66.79;101697.97;106619;1254;60412;-87
2023/09/16 06:36:40;;;;;;;9.60;6.00;;;;;;;26.03;63.67;101696.89;106489;1257;65026;-89
2023/09/16 06:39:09;;;;;;;12.60;6.60;;;;;;;26.10;58.75;101696.60;106450;1254;60283;-89
2023/09/16 06:41:36;;;;;;;9.90;6.20;;;;;;;26.04;58.06;101697.39;106626;1257;64102;-87
2023/09/16 06:44:11;;;;;;;9.00;6.40;;;;;;;26.11;56.08;101693.45;106316;1259;60508;-87
2023/09/16 06:46:40;;;;;;;10.50;6.60;;;;;;;26.09;54.04;101696.18;106570;1254;60528;-89
2023/09/16 06:49:07;;;;;;;9.90;6.10;;;;;;;26.12;53.96;101698.73;106559;1254;65066;-86
2023/09/16 06:51:34;;;;;;;10.90;6.50;;;;;;;26.29;54.22;101702.19;106490;1254;60622;-87
2023/09/16 06:54:01;;;;;;;8.60;5.50;;;;;;;26.46;54.56;101701.89;106417;1254;63899;-89
2023/09/16 06:56:29;;;;;;;9.20;5.90;;;;;;;26.70;52.08;101702.87;106539;1254;60562;-87
2023/09/16 06:58:58;;;;;;;8.60;6.00;;;;;;;26.72;51.58;101703.89;106667;1253;60427;-88
2023/09/16 07:01:25;;;;;;;10.20;6.00;;;;;;;26.87;50.49;101704.37;106500;1257;66255;-86
2023/09/16 07:03:52;;;;;;;8.80;5.70;;;;;;;27.01;49.95;101709.77;106497;1253;60446;-89
2023/09/16 07:06:19;;;;;;;7.50;5.20;;;;;;;27.13;49.02;101713.05;106320;1254;63726;-87
2023/09/16 07:08:46;;;;;;;10.90;6.20;;;;;;;27.29;48.14;101718.92;106306;1254;60627;-90
2023/09/16 07:11:15;;;;;;;10.00;5.80;;;;;;;27.40;46.73;101717.11;106381;1254;60450;-88
2023/09/16 07:13:41;;;;;;;13.60;5.60;;;;;;;27.41;46.95;101719.06;106314;1254;63795;-88
2023/09/16 07:16:11;;;;;;;7.60;5.10;;;;;;;27.45;47.40;101716.10;106509;1254;60428;-89
2023/09/16 07:18:38;;;;;;;10.60;5.70;;;;;;;27.60;47.89;101719.51;106675;1254;64134;-87
2023/09/16 07:21:06;;;;;;;6.90;5.60;;;;;;;27.78;47.26;101723.36;106529;1253;60335;-89
2023/09/16 07:23:33;;;;;;;10.10;5.40;;;;;;;27.98;47.42;101722.38;106499;1253;60322;-88
2023/09/16 07:26:00;;;;;;;11.90;6.10;;;;;;;28.18;45.49;101723.13;106544;1252;64021;-90
2023/09/16 07:28:28;;;;;;;13.70;5.40;;;;;;;28.26;45.89;101728.13;106602;1256;60450;-89
2023/09/16 07:30:56;;;;;;;7.40;5.20;;;;;;;28.42;46.28;101727.17;106403;1253;64117;-89
2023/09/16 07:33:24;;;;;;;6.70;5.20;;;;;;;28.55;45.12;101725.98;106480;1253;60430;-87
2023/09/16 07:35:51;;;;;;;6.80;4.70;;;;;;;28.55;44.42;101728.08;106427;1254;60521;-87
2023/09/16 07:38:18;;;;;;;10.30;5.80;;;;;;;28.62;43.68;101728.14;106583;1257;65352;-87
2023/09/16 07:40:46;;;;;;;9.00;5.10;;;;;;;28.72;43.41;101731.85;106311;1254;60508;-87
2023/09/16 07:43:13;;;;;;;9.00;4.60;;;;;;;28.79;43.01;101733.52;106302;1254;62776;-87
2023/09/16 07:45:41;;;;;;;7.00;4.60;;;;;;;28.88;42.63;101735.35;106359;1254;60352;-87
2023/09/16 07:48:09;;;;;;;6.20;4.50;;;;;;;28.88;40.35;101739.05;106445;1254;60154;-89
2023/09/16 07:50:36;;;;;;;6.50;4.30;;;;;;;28.85;41.34;101741.02;106422;1252;65226;-90
2023/09/16 07:53:03;;;;;;;5.80;4.30;;;;;;;29.01;42.11;101742.29;106273;1254;60533;-88
2023/09/16 07:55:30;;;;;;;10.00;4.80;;;;;;;29.17;41.98;101746.91;106301;1254;72634;-87
2023/09/16 07:57:57;;;;;;;6.70;4.40;;;;;;;29.30;39.69;101739.73;106516;1256;60539;-87
2023/09/16 08:00:24;;;;;;;10.80;4.70;;;;;;;29.39;38.53;101740.44;106428;1254;60543;-86
2023/09/16 08:02:51;;;;;;;6.20;3.70;;;;;;;29.33;38.59;101741.22;106434;1254;64897;-86
2023/09/16 08:05:18;;;;;;;7.70;4.60;;;;;;;29.32;38.60;101743.30;106339;1254;60307;-90
2023/09/16 08:07:46;;;;;;;5.80;4.10;;;;;;;29.49;38.96;101739.39;106369;1253;63823;-90
2023/09/16 08:10:13;;;;;;;5.20;3.90;;;;;;;29.67;39.03;101744.27;106659;1256;60271;-87
2023/09/16 08:12:40;;;;;;;8.30;4.50;;;;;;;29.82;38.67;101745.06;106482;1256;60409;-88
2023/09/16 08:15:07;;;;;;;5.10;4.10;;;;;;;29.96;37.59;101746.46;106554;1254;63855;-88
2023/09/16 08:17:35;;;;;;;7.60;4.30;;;;;;;29.97;36.42;101749.05;106442;1253;60591;-89
2023/09/16 08:20:02;;;;;;;5.40;4.00;;;;;;;29.88;35.72;101747.41;106448;1254;62777;-90
2023/09/16 08:22:30;;;;;;;7.50;3.60;;;;;;;29.87;36.20;101743.94;106419;1254;60479;-86
2023/09/16 08:24:57;;;;;;;4.50;4.10;;;;;;;29.96;37.38;101743.35;106522;1254;59423;-88
2023/09/16 08:27:25;;;;;;;5.00;3.60;;;;;;;29.88;36.33;101741.52;106623;1254;65037;-87
2023/09/16 08:29:54;;;;;;;5.40;3.80;;;;;;;29.90;35.57;101738.57;106666;1254;60344;-89
2023/09/16 08:32:23;;;;;;;8.70;3.70;;;;;;;29.90;36.30;101737.84;106389;1253;62604;-86
2023/09/16 08:34:50;;;;;;;4.20;3.10;;;;;;;29.90;36.06;101739.54;106616;1252;60513;-90
2023/09/16 08:37:17;;;;;;;5.10;3.60;;;;;;;30.03;36.41;101732.79;106433;1254;60389;-88
2023/09/16 08:39:45;;;;;;;7.30;3.40;;;;;;;30.18;35.07;101732.67;106414;1257;65611;-88
2023/09/16 08:42:42;;;;;;;5.10;3.60;;;;;;;30.23;34.87;101733.23;106494;1255;60345;-87
2023/09/16 08:45:14;;;;;;;5.60;3.40;;;;;;;30.21;34.91;101736.27;106352;1254;64065;-89
2023/09/16 08:48:08;;;;;;;8.50;3.70;;;;;;;30.22;35.10;101737.56;106376;1254;60892;-89
2023/09/16 08:50:35;;;;;;;4.80;3.30;;;;;;;30.17;34.17;101734.59;106376;1254;60514;-90
2023/09/16 08:53:03;;;;;;;5.40;3.30;;;;;;;30.19;34.72;101732.28;106454;1254;65073;-89
2023/09/16 08:55:32;;;;;;;4.60;3.40;;;;;;;30.37;35.33;101727.29;106554;1253;60511;-87
2023/09/16 08:58:07;;;;;;;5.40;3.20;;;;;;;30.47;34.08;101725.23;106306;1253;62608;-91
2023/09/16 09:00:36;;;;;;;3.60;3.00;;;;;;;30.43;32.76;101723.64;106418;1256;60535;-90
2023/09/16 09:03:03;;;;;;;4.20;2.70;;;;;;;30.37;31.91;101725.04;106487;1254;60440;-90
2023/09/16 09:05:34;;;;;;;6.20;2.70;;;;;;;30.43;31.91;101728.01;106503;1254;65293;-89
2023/09/16 09:08:02;;;;;;;4.70;3.10;;;;;;;30.47;32.74;101730.45;106570;1254;60421;-89
2023/09/16 09:10:29;;;;;;;3.80;2.80;;;;;;;30.55;31.92;101726.84;106362;1253;63988;-89
2023/09/16 09:12:57;;;;;;;8.00;4.60;;;;;;;30.62;31.41;101725.55;106442;1254;60473;-90
2023/09/16 09:15:25;;;;;;;11.10;6.10;;;;;;;30.69;31.27;101727.15;106358;1254;60748;-87
2023/09/16 09:17:56;;;;;;;5.10;3.10;;;;;;;30.75;31.28;101727.94;106655;1254;64150;-90
2023/09/16 09:20:26;;;;;;;3.50;3.00;;;;;;;30.84;32.31;101725.47;106503;1256;60453;-85
2023/09/16 09:22:54;;;;;;;5.80;3.20;;;;;;;31.06;32.62;101725.44;106481;1253;63904;-86
2023/09/16 09:25:22;;;;;;;4.30;3.40;;;;;;;31.25;31.92;101726.15;106464;1254;60530;-86
2023/09/16 09:27:50;;;;;;;5.90;3.30;;;;;;;31.29;30.99;101728.52;106697;1253;60428;-86
2023/09/16 09:30:24;;;;;;;9.60;4.60;;;;;;;31.30;30.66;101727.16;106752;1253;65288;-90
2023/09/16 09:32:55;;;;;;;3.00;2.40;;;;;;;31.31;30.03;101727.67;106548;1256;60422;-86
2023/09/16 09:35:30;;;;;;;4.50;2.70;;;;;;;31.41;30.69;101734.61;106828;1253;63908;-91
2023/09/16 09:37:57;;;;;;;2.80;2.50;;;;;;;31.48;29.66;101731.85;106640;1252;59503;-91
2023/09/16 09:40:24;;;;;;;2.90;2.60;;;;;;;31.46;29.62;101736.44;106469;1256;60438;-86
2023/09/16 09:42:53;;;;;;;4.50;2.70;;;;;;;31.38;28.92;101739.27;106439;1254;65135;-90
2023/09/16 09:45:20;;;;;;;4.80;2.60;;;;;;;31.32;29.05;101736.13;106404;1259;60932;-88
2023/09/16 09:47:50;;;;;;;4.00;2.80;;;;;;;31.30;29.35;101732.65;106514;1253;62827;-86
2023/09/16 09:50:19;;;;;;;3.00;2.30;;;;;;;31.37;29.35;101735.20;106581;1253;60470;-87
2023/09/16 09:52:51;;;;;;;3.70;2.50;;;;;;;31.39;29.58;101736.20;106390;1253;60425;-90
2023/09/16 09:55:18;;;;;;;3.20;2.60;;;;;;;31.45;30.07;101738.52;106495;1253;64890;-89
2023/09/16 09:57:46;;;;;;;3.30;2.50;;;;;;;31.54;29.43;101733.17;106486;1256;60495;-91
2023/09/16 10:00:15;;;;;;;3.50;2.30;;;;;;;31.54;28.99;101737.38;106343;1254;71262;-87
2023/09/16 10:02:42;;;;;;;2.50;2.20;;;;;;;31.58;28.82;101731.44;106695;1254;60550;-86
2023/09/16 10:05:36;;;;;;;3.20;2.80;;;;;;;31.73;29.30;101729.59;106473;1253;60472;-87
2023/09/16 10:08:03;;;;;;;3.10;2.50;;;;;;;31.80;28.34;101737.86;106375;1253;65250;-90
2023/09/16 10:10:31;;;;;;;2.80;2.50;;;;;;;31.80;28.42;101734.48;106289;1259;60604;-90
2023/09/16 10:12:58;;;;;;;3.00;2.50;;;;;;;31.78;28.29;101730.59;106429;1254;64045;-85
2023/09/16 10:15:31;;;;;;;3.30;2.60;;;;;;;31.77;29.28;101728.95;106427;1254;60421;-85
2023/09/16 10:17:58;;;;;;;3.10;2.60;;;;;;;31.93;29.30;101722.54;106629;1254;60429;-86
2023/09/16 10:20:29;;;;;;;2.90;2.60;;;;;;;32.04;29.13;101723.56;106342;1253;65336;-86
2023/09/16 10:22:57;;;;;;;4.00;2.60;;;;;;;32.03;28.39;101723.00;106545;1254;60419;-86
2023/09/16 10:25:24;;;;;;;4.60;2.60;;;;;;;32.12;27.54;101723.29;106376;1254;64387;-86
2023/09/16 10:27:58;;;;;;;3.70;2.80;;;;;;;32.17;27.73;101722.65;106334;1257;60483;-90
2023/09/16 10:30:25;;;;;;;2.60;2.30;;;;;;;32.16;27.78;101718.13;106496;1256;60901;-90
2023/09/16 10:32:53;;;;;;;4.40;2.60;;;;;;;32.29;28.06;101717.43;106694;1253;64900;-90
2023/09/16 10:35:20;;;;;;;3.30;2.50;;;;;;;32.29;27.37;101717.84;106398;1253;60409;-89
2023/09/16 10:37:51;;;;;;;3.50;2.40;;;;;;;32.11;26.80;101720.52;106555;1253;62435;-90
2023/09/16 10:40:19;;;;;;;2.80;2.30;;;;;;;31.99;28.15;101718.04;106507;1254;61126;-91
2023/09/16 10:42:47;;;;;;;4.20;2.60;;;;;;;31.97;28.68;101716.98;106614;1254;60533;-87
2023/09/16 10:45:15;;;;;;;5.70;2.50;;;;;;;31.83;27.92;101715.36;106513;1254;65165;-89
2023/09/16 10:47:42;;;;;;;3.50;2.90;;;;;;;31.85;27.43;101711.98;106454;1253;60514;-91
2023/09/16 14:07:39;;;;;;;3.80;2.50;;;;;;;31.64;26.02;101639.21;106617;1254;60339;-91
2023/09/16 14:10:07;;;;;;;4.00;2.50;;;;;;;31.46;26.35;101639.20;106668;1256;60329;-91
2023/09/16 14:12:34;;;;;;;3.60;2.20;;;;;;;31.29;26.42;101639.89;106566;1256;65057;-90
2023/09/16 14:15:05;;;;;;;2.70;2.10;;;;;;;31.16;26.29;101640.03;106769;1254;60310;-89
2023/09/16 14:17:32;;;;;;;3.40;2.50;;;;;;;31.24;26.01;101640.08;106269;1254;63863;-87
2023/09/16 14:19:59;;;;;;;3.10;2.30;;;;;;;31.24;26.12;101639.27;106575;1254;60522;-88
2023/09/16 14:22:29;;;;;;;2.90;2.30;;;;;;;31.27;26.40;101641.79;106582;1252;60469;-89
2023/09/16 14:24:56;;;;;;;4.70;2.50;;;;;;;31.38;26.38;101638.33;106556;1254;63817;-88
2023/09/16 14:27:23;;;;;;;4.50;2.40;;;;;;;31.38;26.62;101638.00;106669;1254;60337;-89